createdAt,value
2023-03-04T00:00:43.356Z,16.43
2023-03-04T00:01:45.125Z,16.30
2023-03-04T00:02:46.725Z,17.50
2023-03-04T00:03:48.390Z,17.20
2023-03-04T00:09:21.629Z,11.43
2023-03-04T00:10:23.208Z,11.07
2023-03-04T00:11:24.983Z,11.20
2023-03-04T00:12:26.494Z,11.33
2023-03-04T00:13:28.032Z,11.80
2023-03-04T00:14:30.602Z,11.10
2023-03-04T00:15:32.284Z,10.77
2023-03-04T00:16:33.887Z,11.13
2023-03-04T00:17:35.481Z,10.90
2023-03-04T00:18:37.029Z,11.40
2023-03-04T00:19:38.702Z,10.60
2023-03-04T00:20:40.279Z,11.07
2023-03-04T00:21:41.840Z,11.43
2023-03-04T00:22:43.400Z,10.60
2023-03-04T00:23:45.020Z,10.77
2023-03-04T00:24:46.675Z,11.47
2023-03-04T00:25:48.364Z,12.57
2023-03-04T00:26:49.923Z,14.10
2023-03-04T00:27:51.645Z,14.27
2023-03-04T00:28:53.294Z,14.83
2023-03-04T00:29:56.173Z,15.87
2023-03-04T00:30:57.941Z,15.00
2023-03-04T00:31:59.680Z,16.30
2023-03-04T00:33:01.317Z,16.67
2023-03-04T00:34:03.101Z,15.77
2023-03-04T00:35:06.869Z,16.40
2023-03-04T00:36:08.621Z,16.17
2023-03-04T00:37:10.173Z,16.70
2023-03-04T00:38:11.730Z,17.50
2023-03-04T00:39:13.992Z,18.53
2023-03-04T00:40:15.704Z,17.63
2023-03-04T00:41:17.199Z,18.60
2023-03-04T00:42:18.762Z,18.67
2023-03-04T00:43:20.912Z,20.03
2023-03-04T00:44:22.437Z,19.10
2023-03-04T00:45:24.033Z,18.83
2023-03-04T00:46:25.653Z,18.53
2023-03-04T00:47:27.201Z,19.67
2023-03-04T00:48:28.747Z,19.83
2023-03-04T00:49:30.401Z,18.93
2023-03-04T00:50:32.030Z,19.07
2023-03-04T00:51:34.342Z,18.67
2023-03-04T00:52:35.911Z,18.53
2023-03-04T00:53:37.487Z,19.20
2023-03-04T00:54:39.019Z,18.77
2023-03-04T00:55:40.552Z,19.23
2023-03-04T00:56:42.087Z,19.23
2023-03-04T00:57:43.626Z,19.17
2023-03-04T00:58:45.158Z,18.93
2023-03-04T00:59:46.824Z,18.67
2023-03-04T01:00:48.543Z,17.43
2023-03-04T01:01:50.385Z,18.80
2023-03-04T01:02:51.996Z,17.40
2023-03-04T01:03:53.524Z,18.57
2023-03-04T01:04:55.020Z,17.10
2023-03-04T01:05:56.558Z,12.73
2023-03-04T01:06:58.119Z,10.70
2023-03-04T01:07:59.741Z,8.53
2023-03-04T01:09:02.046Z,9.73
2023-03-04T01:10:04.665Z,9.60
2023-03-04T01:11:07.293Z,13.83
2023-03-04T01:12:08.825Z,13.70
2023-03-04T01:13:10.464Z,17.83
2023-03-04T01:14:12.092Z,18.13
2023-03-04T01:15:14.953Z,18.63
2023-03-04T01:16:16.623Z,17.83
2023-03-04T01:17:18.198Z,16.70
2023-03-04T01:18:19.874Z,15.93
2023-03-04T01:19:21.659Z,14.63
2023-03-04T01:20:23.233Z,10.90
2023-03-04T01:21:25.041Z,11.33
2023-03-04T01:22:26.605Z,11.00
2023-03-04T01:23:28.170Z,11.33
2023-03-04T01:24:30.484Z,10.50
2023-03-04T01:25:32.056Z,9.63
2023-03-04T01:26:33.654Z,10.93
2023-03-04T01:27:35.221Z,10.00
2023-03-04T01:28:36.981Z,8.23
2023-03-04T01:29:38.524Z,7.70
2023-03-04T01:30:40.198Z,7.90
2023-03-04T01:31:41.713Z,9.03
2023-03-04T01:32:43.253Z,12.10
2023-03-04T01:33:44.819Z,15.27
2023-03-04T01:34:46.508Z,17.27
2023-03-04T01:35:48.124Z,17.90
2023-03-04T01:36:49.674Z,15.47
2023-03-04T01:37:51.285Z,13.47
2023-03-04T01:38:52.927Z,12.40
2023-03-04T01:39:54.526Z,13.90
2023-03-04T01:40:56.211Z,10.77
2023-03-04T01:41:58.258Z,14.40
2023-03-04T01:42:59.973Z,12.77
2023-03-04T01:44:02.580Z,9.90
2023-03-04T01:45:06.275Z,9.03
2023-03-04T01:46:09.742Z,8.37
2023-03-04T01:47:11.502Z,8.33
2023-03-04T01:48:16.923Z,10.73
2023-03-04T01:49:19.504Z,12.90
2023-03-04T01:50:28.589Z,12.13
2023-03-04T01:51:30.185Z,13.20
2023-03-04T01:52:31.804Z,15.47
2023-03-04T01:53:33.783Z,15.30
2023-03-04T01:54:35.330Z,16.47
2023-03-04T01:55:36.920Z,15.53
2023-03-04T01:56:40.121Z,15.37
2023-03-04T01:57:41.841Z,15.03
2023-03-04T01:58:43.635Z,17.10
2023-03-04T01:59:45.710Z,16.23
2023-03-04T02:00:47.511Z,16.87
2023-03-04T02:01:52.040Z,16.27
2023-03-04T02:02:58.138Z,16.40
2023-03-04T02:03:59.961Z,15.33
2023-03-04T02:05:01.530Z,15.70
2023-03-04T02:06:03.372Z,13.53
2023-03-04T02:07:05.821Z,13.70
2023-03-04T02:08:09.280Z,13.67
2023-03-04T02:09:11.398Z,12.43
2023-03-04T02:10:13.265Z,13.53
2023-03-04T02:11:15.027Z,12.97
2023-03-04T02:12:18.654Z,13.67
2023-03-04T02:13:20.506Z,14.53
2023-03-04T02:14:23.116Z,13.73
2023-03-04T02:15:25.171Z,12.83
2023-03-04T02:16:27.532Z,13.90
2023-03-04T02:17:29.602Z,14.77
2023-03-04T02:18:31.198Z,13.87
2023-03-04T02:19:44.623Z,14.10
2023-03-04T02:20:54.450Z,12.93
2023-03-04T02:21:56.207Z,11.37
2023-03-04T02:23:27.429Z,11.00
2023-03-04T02:24:47.581Z,12.17
2023-03-04T02:26:12.274Z,12.37
2023-03-04T02:27:13.882Z,14.20
2023-03-04T02:28:15.595Z,14.97
2023-03-04T02:29:17.592Z,15.00
2023-03-04T02:30:23.687Z,14.37
2023-03-04T02:31:27.368Z,14.10
2023-03-04T02:32:29.074Z,14.60
2023-03-04T02:33:30.911Z,14.37
2023-03-04T02:34:35.593Z,15.13
2023-03-04T02:35:37.183Z,18.43
2023-03-04T02:36:40.549Z,18.80
2023-03-04T02:37:42.096Z,20.23
2023-03-04T02:38:43.721Z,20.77
2023-03-04T02:39:47.429Z,21.00
2023-03-04T02:40:54.674Z,19.43
2023-03-04T02:41:56.569Z,19.60
2023-03-04T02:43:01.650Z,20.07
2023-03-04T02:44:03.689Z,19.40
2023-03-04T02:45:05.865Z,19.80
2023-03-04T02:46:10.785Z,19.77
2023-03-04T02:47:14.435Z,19.30
2023-03-04T02:48:19.621Z,20.47
2023-03-04T02:49:23.453Z,20.83
2023-03-04T02:50:28.131Z,21.73
2023-03-04T02:51:29.708Z,21.90
2023-03-04T02:52:31.207Z,22.70
2023-03-04T02:53:32.732Z,23.20
2023-03-04T02:54:35.275Z,22.47
2023-03-04T02:55:36.946Z,20.60
2023-03-04T02:56:38.500Z,22.00
2023-03-04T02:57:40.039Z,21.23
2023-03-04T02:58:41.639Z,20.33
2023-03-04T02:59:43.387Z,20.17
2023-03-04T03:00:44.953Z,18.87
2023-03-04T03:01:46.699Z,19.37
2023-03-04T03:02:48.280Z,19.57
2023-03-04T03:03:49.831Z,19.73
2023-03-04T03:04:51.372Z,19.50
2023-03-04T03:05:54.536Z,18.27
2023-03-04T03:06:56.137Z,18.47
2023-03-04T03:07:57.739Z,17.87
2023-03-04T03:08:59.228Z,17.53
2023-03-04T03:10:01.775Z,18.20
2023-03-04T03:11:03.451Z,18.73
2023-03-04T03:12:05.119Z,18.13
2023-03-04T03:13:06.755Z,18.93
2023-03-04T03:14:08.324Z,18.67
2023-03-04T03:15:10.282Z,17.33
2023-03-04T03:16:11.851Z,18.83
2023-03-04T03:17:13.427Z,19.27
2023-03-04T03:18:14.929Z,17.27
2023-03-04T03:19:16.465Z,16.17
2023-03-04T03:20:18.845Z,16.50
2023-03-04T03:21:20.477Z,16.23
2023-03-04T03:22:22.027Z,16.50
2023-03-04T03:23:24.008Z,15.40
2023-03-04T03:24:25.591Z,13.70
2023-03-04T03:25:27.110Z,14.77
2023-03-04T03:26:28.648Z,14.20
2023-03-04T03:27:30.266Z,14.47
2023-03-04T03:28:31.874Z,13.20
2023-03-04T03:29:33.484Z,13.03
2023-03-04T03:30:35.047Z,11.93
2023-03-04T03:31:36.691Z,12.00
2023-03-04T03:32:38.353Z,11.37
2023-03-04T03:33:39.885Z,11.07
2023-03-04T03:34:41.435Z,10.93
2023-03-04T03:35:43.013Z,10.83
2023-03-04T03:36:44.531Z,11.00
2023-03-04T03:37:46.184Z,10.53
2023-03-04T03:38:47.735Z,11.20
2023-03-04T03:39:49.275Z,10.30
2023-03-04T03:40:50.782Z,10.13
2023-03-04T03:41:52.282Z,10.47
2023-03-04T03:42:53.808Z,10.70
2023-03-04T03:43:55.451Z,10.97
2023-03-04T03:44:57.064Z,11.10
2023-03-04T03:45:58.631Z,11.97
2023-03-04T03:47:00.187Z,12.43
2023-03-04T03:48:01.718Z,12.20
2023-03-04T03:49:03.268Z,12.33
2023-03-04T03:50:05.395Z,12.40
2023-03-04T03:51:06.972Z,13.23
2023-03-04T03:52:09.141Z,13.60
2023-03-04T03:53:10.686Z,15.53
2023-03-04T03:54:12.231Z,14.87
2023-03-04T03:55:13.926Z,14.93
2023-03-04T03:56:15.469Z,13.90
2023-03-04T03:57:17.056Z,13.83
2023-03-04T03:58:18.589Z,13.00
2023-03-04T03:59:20.204Z,12.80
2023-03-04T04:00:22.346Z,12.80
2023-03-04T04:01:23.862Z,12.97
2023-03-04T04:02:25.478Z,12.83
2023-03-04T04:03:27.125Z,13.60
2023-03-04T04:04:28.642Z,14.00
2023-03-04T04:05:30.237Z,13.70
2023-03-04T04:06:31.760Z,14.00
2023-03-04T04:07:33.611Z,13.40
2023-03-04T04:08:35.299Z,12.93
2023-03-04T04:09:36.928Z,13.00
2023-03-04T04:10:38.633Z,11.27
2023-03-04T04:11:40.171Z,12.40
2023-03-04T04:12:41.749Z,11.83
2023-03-04T04:13:43.407Z,12.13
2023-03-04T04:14:45.194Z,10.70
2023-03-04T04:15:46.774Z,9.83
2023-03-04T04:16:48.401Z,10.13
2023-03-04T04:17:49.956Z,10.97
2023-03-04T04:18:51.548Z,11.47
2023-03-04T04:19:53.068Z,10.33
2023-03-04T04:20:54.729Z,10.67
2023-03-04T04:21:56.284Z,10.17
2023-03-04T04:22:57.783Z,10.90
2023-03-04T04:23:59.373Z,9.63
2023-03-04T04:25:01.032Z,10.17
2023-03-04T04:26:02.623Z,10.20
2023-03-04T04:27:04.528Z,10.67
2023-03-04T04:28:06.202Z,11.07
2023-03-04T04:29:08.667Z,10.93
2023-03-04T04:30:10.972Z,11.57
2023-03-04T04:31:12.692Z,12.07
2023-03-04T04:32:14.467Z,12.33
2023-03-04T04:33:16.864Z,13.13
2023-03-04T04:34:18.701Z,12.90
2023-03-04T04:35:20.451Z,12.53
2023-03-04T04:36:22.061Z,12.40
2023-03-04T04:37:23.653Z,12.20
2023-03-04T04:38:25.922Z,12.60
2023-03-04T04:39:27.542Z,11.17
2023-03-04T04:40:29.042Z,12.37
2023-03-04T04:41:36.900Z,12.43
2023-03-04T04:42:38.430Z,11.27
2023-03-04T04:43:39.965Z,11.63
2023-03-04T04:44:41.485Z,13.20
2023-03-04T04:45:43.021Z,12.47
2023-03-04T04:46:44.570Z,13.70
2023-03-04T04:47:46.117Z,13.70
2023-03-04T04:48:47.750Z,12.67
2023-03-04T04:49:49.290Z,13.50
2023-03-04T04:50:55.562Z,15.03
2023-03-04T04:51:57.163Z,15.87
2023-03-04T04:52:58.698Z,15.93
2023-03-04T04:54:01.901Z,15.70
2023-03-04T04:55:03.969Z,14.67
2023-03-04T04:56:17.454Z,16.23
2023-03-04T04:57:18.971Z,16.83
2023-03-04T04:58:20.490Z,16.00
2023-03-04T04:59:22.310Z,16.70
2023-03-04T05:00:24.018Z,16.87
2023-03-04T05:01:26.428Z,16.53
2023-03-04T05:02:28.037Z,16.67
2023-03-04T05:03:29.645Z,16.47
2023-03-04T05:04:31.244Z,16.93
2023-03-04T05:05:32.760Z,17.63
2023-03-04T05:06:34.381Z,17.13
2023-03-04T05:07:35.922Z,16.60
2023-03-04T05:08:37.486Z,16.67
2023-03-04T05:09:39.055Z,16.50
2023-03-04T05:10:40.633Z,17.30
2023-03-04T05:11:42.180Z,16.23
2023-03-04T05:12:45.038Z,17.40
2023-03-04T05:13:47.858Z,16.27
2023-03-04T05:14:49.377Z,16.57
2023-03-04T05:15:53.287Z,15.70
2023-03-04T05:16:54.906Z,15.60
2023-03-04T05:17:57.450Z,14.90
2023-03-04T05:18:59.050Z,14.00
2023-03-04T05:20:01.033Z,14.87
2023-03-04T05:21:04.310Z,14.07
2023-03-04T05:22:06.036Z,13.77
2023-03-04T05:23:07.606Z,12.40
2023-03-04T05:24:09.469Z,12.30
2023-03-04T05:25:11.086Z,12.83
2023-03-04T05:26:17.877Z,14.23
2023-03-04T05:27:19.400Z,13.47
2023-03-04T05:28:20.944Z,12.87
2023-03-04T05:29:22.544Z,13.00
2023-03-04T05:30:24.141Z,13.07
2023-03-04T05:31:25.799Z,13.40
2023-03-04T05:32:28.124Z,13.77
2023-03-04T05:33:29.915Z,14.37
2023-03-04T05:34:31.423Z,14.60
2023-03-04T05:35:32.956Z,12.83
2023-03-04T05:36:34.550Z,12.00
2023-03-04T05:37:36.082Z,11.33
2023-03-04T05:38:37.936Z,12.50
2023-03-04T05:39:39.457Z,12.60
2023-03-04T05:40:41.900Z,12.87
2023-03-04T05:41:43.467Z,12.93
2023-03-04T05:42:45.581Z,13.00
2023-03-04T05:43:47.096Z,13.00
2023-03-04T05:44:48.658Z,12.57
2023-03-04T05:45:50.231Z,12.00
2023-03-04T05:46:51.925Z,12.13
2023-03-04T05:47:54.281Z,13.27
2023-03-04T05:48:55.799Z,12.80
2023-03-04T05:49:58.137Z,12.63
2023-03-04T05:51:01.777Z,12.13
2023-03-04T05:52:03.526Z,12.40
2023-03-04T05:53:05.136Z,12.57
2023-03-04T05:54:06.649Z,12.50
2023-03-04T05:55:08.619Z,13.27
2023-03-04T05:56:18.793Z,12.20
2023-03-04T05:57:20.384Z,11.83
2023-03-04T05:58:22.481Z,12.70
2023-03-04T05:59:24.066Z,12.17
2023-03-04T06:00:26.197Z,11.87
2023-03-04T06:01:27.803Z,12.77
2023-03-04T06:02:29.370Z,11.87
2023-03-04T06:03:30.982Z,12.10
2023-03-04T06:04:32.514Z,13.00
2023-03-04T06:05:34.104Z,12.03
2023-03-04T06:06:35.645Z,11.40
2023-03-04T06:07:37.329Z,12.43
2023-03-04T06:08:38.970Z,12.33
2023-03-04T06:09:40.520Z,11.53
2023-03-04T06:10:42.479Z,11.20
2023-03-04T06:11:44.005Z,11.70
2023-03-04T06:12:45.818Z,11.83
2023-03-04T06:13:47.427Z,12.37
2023-03-04T06:14:48.950Z,12.00
2023-03-04T06:15:58.047Z,11.63
2023-03-04T06:16:59.602Z,11.77
2023-03-04T06:18:01.296Z,12.47
2023-03-04T06:19:02.933Z,12.47
2023-03-04T06:20:06.966Z,11.47
2023-03-04T06:21:08.477Z,11.90
2023-03-04T06:22:11.088Z,11.57
2023-03-04T06:23:12.618Z,11.10
2023-03-04T06:24:14.160Z,11.43
2023-03-04T06:25:15.746Z,12.40
2023-03-04T06:26:17.308Z,12.13
2023-03-04T06:27:18.905Z,12.17
2023-03-04T06:28:21.123Z,11.60
2023-03-04T06:29:22.874Z,12.97
2023-03-04T06:30:24.500Z,11.97
2023-03-04T06:31:26.146Z,13.37
2023-03-04T06:32:28.459Z,13.20
2023-03-04T06:33:30.234Z,13.53
2023-03-04T06:34:33.729Z,14.83
2023-03-04T06:35:35.274Z,13.63
2023-03-04T06:36:37.282Z,14.13
2023-03-04T06:37:39.400Z,13.40
2023-03-04T06:38:40.932Z,14.23
2023-03-04T06:39:43.108Z,12.70
2023-03-04T06:40:45.998Z,13.43
2023-03-04T06:41:47.578Z,13.90
2023-03-04T06:42:49.153Z,14.80
2023-03-04T06:43:54.294Z,15.37
2023-03-04T06:44:56.069Z,15.03
2023-03-04T06:45:57.637Z,15.33
2023-03-04T06:46:59.248Z,16.30
2023-03-04T06:48:00.800Z,16.03
2023-03-04T06:49:02.725Z,15.53
2023-03-04T06:50:04.972Z,16.17
2023-03-04T06:51:10.990Z,14.73
2023-03-04T06:52:12.990Z,14.57
2023-03-04T06:53:14.591Z,15.77
2023-03-04T06:54:16.179Z,17.23
2023-03-04T06:55:17.738Z,17.23
2023-03-04T06:56:19.288Z,18.53
2023-03-04T06:57:20.840Z,18.50
2023-03-04T06:58:22.350Z,18.53
2023-03-04T06:59:23.978Z,18.83
2023-03-04T07:00:25.713Z,18.53
2023-03-04T07:01:29.118Z,19.40
2023-03-04T07:02:30.947Z,20.07
2023-03-04T07:03:32.450Z,18.93
2023-03-04T07:04:34.034Z,17.90
2023-03-04T07:05:35.549Z,19.50
2023-03-04T07:06:37.118Z,20.90
2023-03-04T07:07:38.831Z,21.43
2023-03-04T07:08:41.098Z,21.43
2023-03-04T07:09:42.640Z,20.73
2023-03-04T07:10:44.217Z,21.70
2023-03-04T07:11:46.069Z,22.23
2023-03-04T07:12:47.996Z,22.07
2023-03-04T07:13:49.830Z,23.83
2023-03-04T07:14:51.459Z,23.20
2023-03-04T07:15:53.657Z,22.77
2023-03-04T07:16:55.513Z,22.60
2023-03-04T07:17:57.028Z,22.73
2023-03-04T07:18:58.695Z,22.30
2023-03-04T07:20:00.466Z,22.73
2023-03-04T07:21:02.055Z,21.90
2023-03-04T07:22:03.964Z,22.87
2023-03-04T07:23:05.691Z,22.37
2023-03-04T07:24:07.260Z,22.13
2023-03-04T07:25:09.373Z,22.73
2023-03-04T07:26:10.985Z,23.30
2023-03-04T07:27:12.534Z,23.17
2023-03-04T07:28:14.084Z,22.23
2023-03-04T07:29:15.729Z,22.57
2023-03-04T07:30:17.591Z,21.80
2023-03-04T07:31:27.613Z,22.13
2023-03-04T07:32:29.280Z,20.83
2023-03-04T07:33:30.833Z,20.53
2023-03-04T07:34:32.409Z,19.43
2023-03-04T07:35:34.428Z,19.13
2023-03-04T07:36:37.540Z,19.23
2023-03-04T07:37:40.532Z,18.80
2023-03-04T07:38:50.355Z,21.97
2023-03-04T07:39:51.856Z,21.57
2023-03-04T07:40:58.047Z,20.30
2023-03-04T07:41:59.645Z,21.10
2023-03-04T07:43:01.217Z,20.50
2023-03-04T07:44:04.751Z,16.13
2023-03-04T07:45:07.973Z,19.00
2023-03-04T07:46:09.950Z,18.07
2023-03-04T07:47:11.478Z,19.87
2023-03-04T07:48:13.015Z,20.13
2023-03-04T07:49:14.632Z,20.50
2023-03-04T07:50:18.044Z,20.10
2023-03-04T07:51:22.511Z,19.70
2023-03-04T07:52:24.120Z,18.70
2023-03-04T07:53:25.647Z,19.83
2023-03-04T07:54:27.182Z,20.07
2023-03-04T07:55:30.684Z,20.33
2023-03-04T07:56:34.289Z,19.33
2023-03-04T07:57:36.075Z,20.00
2023-03-04T07:58:37.661Z,20.10
2023-03-04T07:59:39.202Z,20.40
2023-03-04T08:00:41.425Z,19.77
2023-03-04T08:01:45.280Z,20.00
2023-03-04T08:02:47.542Z,19.60
2023-03-04T08:03:49.512Z,19.77
2023-03-04T08:04:51.059Z,19.57
2023-03-04T08:05:52.669Z,20.97
2023-03-04T08:06:54.217Z,19.73
2023-03-04T08:07:58.021Z,19.20
2023-03-04T08:09:02.447Z,19.70
2023-03-04T08:10:04.742Z,20.47
2023-03-04T08:11:08.479Z,20.93
2023-03-04T08:12:10.119Z,21.00
2023-03-04T08:13:11.672Z,21.87
2023-03-04T08:14:13.958Z,21.77
2023-03-04T08:15:15.466Z,21.27
2023-03-04T08:16:19.481Z,21.43
2023-03-04T08:17:21.339Z,21.90
2023-03-04T08:18:23.049Z,20.10
2023-03-04T08:19:26.040Z,20.40
2023-03-04T08:20:28.082Z,20.20
2023-03-04T08:21:30.205Z,20.13
2023-03-04T08:22:31.769Z,20.13
2023-03-04T08:23:33.309Z,21.70
2023-03-04T08:24:35.086Z,22.57
2023-03-04T08:25:43.063Z,22.77
2023-03-04T08:26:47.575Z,20.67
2023-03-04T08:27:49.176Z,21.20
2023-03-04T08:28:51.380Z,21.87
2023-03-04T08:29:52.921Z,21.47
2023-03-04T08:30:54.971Z,21.10
2023-03-04T08:31:57.696Z,21.23
2023-03-04T08:32:59.508Z,21.33
2023-03-04T08:34:03.147Z,20.73
2023-03-04T08:35:05.080Z,21.80
2023-03-04T08:36:07.298Z,21.20
2023-03-04T08:37:08.892Z,21.20
2023-03-04T08:38:10.443Z,21.20
2023-03-04T08:39:14.073Z,21.30
2023-03-04T08:40:15.780Z,19.70
2023-03-04T08:41:17.364Z,19.63
2023-03-04T08:42:18.908Z,20.37
2023-03-04T08:43:20.544Z,21.60
2023-03-04T08:44:22.092Z,20.67
2023-03-04T08:45:23.696Z,20.83
2023-03-04T08:46:25.337Z,21.17
2023-03-04T08:47:26.874Z,21.00
2023-03-04T08:48:28.597Z,20.43
2023-03-04T08:49:30.121Z,21.67
2023-03-04T08:50:32.333Z,20.33
2023-03-04T08:51:35.789Z,21.33
2023-03-04T08:52:37.384Z,20.80
2023-03-04T08:53:39.368Z,19.60
2023-03-04T08:54:40.941Z,18.60
2023-03-04T08:55:43.406Z,18.37
2023-03-04T08:56:45.432Z,19.23
2023-03-04T08:57:46.999Z,18.03
2023-03-04T08:58:48.554Z,18.93
2023-03-04T08:59:50.125Z,18.70
2023-03-04T09:00:51.680Z,18.67
2023-03-04T09:01:53.224Z,19.07
2023-03-04T09:02:55.831Z,18.10
2023-03-04T09:03:57.484Z,17.93
2023-03-04T09:04:59.060Z,18.57
2023-03-04T09:06:02.817Z,19.07
2023-03-04T09:07:04.416Z,18.50
2023-03-04T09:08:06.858Z,17.77
2023-03-04T09:09:08.477Z,18.87
2023-03-04T09:10:10.717Z,18.80
2023-03-04T09:11:13.468Z,19.70
2023-03-04T09:12:14.990Z,18.93
2023-03-04T09:13:16.647Z,18.57
2023-03-04T09:14:18.170Z,18.07
2023-03-04T09:15:19.827Z,17.80
2023-03-04T09:16:21.543Z,17.20
2023-03-04T09:17:23.101Z,18.53
2023-03-04T09:18:25.455Z,17.70
2023-03-04T09:19:28.016Z,17.57
2023-03-04T09:20:30.283Z,18.73
2023-03-04T09:21:31.892Z,17.00
2023-03-04T09:22:33.437Z,18.00
2023-03-04T09:23:35.998Z,16.30
2023-03-04T09:24:37.724Z,17.00
2023-03-04T09:25:39.980Z,18.03
2023-03-04T09:26:41.547Z,16.93
2023-03-04T09:27:43.168Z,16.73
2023-03-04T09:28:44.692Z,17.40
2023-03-04T09:29:46.265Z,17.40
2023-03-04T09:30:48.504Z,18.20
2023-03-04T09:31:50.331Z,17.37
2023-03-04T09:32:51.896Z,17.70
2023-03-04T09:33:55.264Z,19.03
2023-03-04T09:34:56.853Z,17.33
2023-03-04T09:35:59.627Z,25.37
2023-03-04T09:37:01.594Z,35.00
2023-03-04T09:38:03.477Z,17.70
2023-03-04T09:39:05.413Z,15.83
2023-03-04T09:40:08.270Z,16.17
2023-03-04T09:41:15.597Z,15.93
2023-03-04T09:42:28.325Z,14.00
2023-03-04T09:43:32.127Z,14.57
2023-03-04T09:44:38.708Z,14.57
2023-03-04T09:45:47.256Z,13.93
2023-03-04T09:46:50.536Z,15.07
2023-03-04T09:47:54.530Z,15.00
2023-03-04T09:48:56.781Z,14.50
2023-03-04T09:50:05.008Z,14.77
2023-03-04T09:51:35.456Z,14.00
2023-03-04T09:53:02.338Z,15.10
2023-03-04T09:54:07.278Z,14.57
2023-03-04T09:55:44.011Z,14.13
2023-03-04T09:56:45.609Z,13.77
2023-03-04T09:57:53.396Z,13.47
2023-03-04T09:59:13.441Z,14.00
2023-03-04T10:00:24.027Z,14.03
2023-03-04T10:01:48.272Z,13.93
2023-03-04T10:03:14.533Z,14.00
2023-03-04T10:04:40.062Z,14.40
2023-03-04T10:05:54.465Z,14.27
2023-03-04T10:06:57.042Z,14.37
2023-03-04T10:08:03.751Z,14.30
2023-03-04T10:09:12.929Z,14.90
2023-03-04T10:10:19.187Z,14.03
2023-03-04T10:11:27.675Z,13.57
2023-03-04T10:12:32.996Z,14.03
2023-03-04T10:13:54.309Z,14.83
2023-03-04T10:15:04.630Z,13.50
2023-03-04T10:16:12.604Z,12.80
2023-03-04T10:17:40.435Z,12.07
2023-03-04T10:18:52.861Z,12.43
2023-03-04T10:20:10.123Z,11.07
2023-03-04T10:21:21.029Z,12.23
2023-03-04T10:22:26.820Z,11.63
2023-03-04T10:23:31.313Z,12.63
2023-03-04T10:24:32.996Z,12.33
2023-03-04T10:25:46.791Z,11.10
2023-03-04T10:27:01.641Z,12.90
2023-03-04T10:28:12.449Z,13.43
2023-03-04T10:29:17.568Z,15.13
2023-03-04T10:30:30.432Z,12.40
2023-03-04T10:31:37.391Z,12.10
2023-03-04T10:32:46.058Z,12.33
2023-03-04T10:33:47.573Z,12.17
2023-03-04T10:34:49.150Z,11.20
2023-03-04T10:36:05.004Z,11.23
2023-03-04T10:37:08.815Z,10.00
2023-03-04T10:38:12.969Z,10.97
2023-03-04T10:39:36.326Z,10.70
2023-03-04T10:40:42.776Z,10.70
2023-03-04T10:41:54.348Z,10.00
2023-03-04T10:42:56.264Z,9.77
2023-03-04T10:44:16.448Z,9.83
2023-03-04T10:45:27.805Z,11.40
2023-03-04T10:46:30.430Z,10.20
2023-03-04T10:47:33.068Z,10.73
2023-03-04T10:48:34.666Z,12.00
2023-03-04T10:49:50.885Z,10.77
2023-03-04T10:50:52.784Z,11.67
2023-03-04T10:52:14.433Z,10.77
2023-03-04T10:53:30.756Z,21.17
2023-03-04T10:54:47.652Z,11.97
2023-03-04T10:55:49.186Z,10.13
2023-03-04T10:56:59.995Z,15.47
2023-03-04T10:58:06.348Z,13.83
2023-03-04T10:59:29.354Z,11.73
2023-03-04T11:00:36.771Z,10.90
2023-03-04T11:01:38.418Z,10.67
2023-03-04T11:02:39.950Z,10.60
2023-03-04T11:03:48.808Z,10.57
2023-03-04T11:05:18.657Z,10.37
2023-03-04T11:06:22.509Z,9.73
2023-03-04T11:07:26.953Z,9.37
2023-03-04T11:08:28.555Z,8.87
2023-03-04T11:09:31.976Z,8.90
2023-03-04T11:10:36.786Z,9.40
2023-03-04T11:11:44.786Z,9.00
2023-03-04T11:12:58.471Z,9.70
2023-03-04T11:14:17.924Z,9.10
2023-03-04T11:15:27.295Z,9.80
2023-03-04T11:16:32.267Z,10.40
2023-03-04T11:17:44.047Z,9.40
2023-03-04T11:18:53.232Z,9.13
2023-03-04T11:20:36.571Z,10.07
2023-03-04T11:21:40.911Z,9.90
2023-03-04T11:22:45.587Z,9.17
2023-03-04T11:23:47.066Z,8.97
2023-03-04T11:24:57.941Z,10.27
2023-03-04T11:26:03.503Z,8.90
2023-03-04T11:27:12.249Z,8.87
2023-03-04T11:28:17.925Z,8.73
2023-03-04T11:29:34.004Z,7.90
2023-03-04T11:30:41.748Z,8.50
2023-03-04T11:31:52.660Z,8.00
2023-03-04T11:33:02.115Z,8.37
2023-03-04T11:34:36.778Z,8.20
2023-03-04T11:36:13.604Z,8.43
2023-03-04T11:37:54.578Z,8.27
2023-03-04T11:38:57.088Z,7.50
2023-03-04T11:40:13.303Z,7.60
2023-03-04T11:41:20.768Z,7.03
2023-03-04T11:42:54.954Z,7.70
2023-03-04T11:43:56.612Z,7.27
2023-03-04T11:44:58.370Z,7.27
2023-03-04T11:46:18.590Z,8.80
2023-03-04T11:47:46.102Z,8.00
2023-03-04T11:48:53.765Z,8.03
2023-03-04T11:50:23.469Z,8.17
2023-03-04T11:51:39.123Z,8.43
2023-03-04T11:53:05.056Z,7.50
2023-03-04T11:54:40.081Z,7.73
2023-03-04T11:55:46.302Z,8.50
2023-03-04T11:56:51.652Z,7.03
2023-03-04T11:58:06.140Z,7.97
2023-03-04T11:59:10.547Z,7.50
2023-03-04T12:00:35.947Z,8.10
2023-03-04T12:02:11.100Z,9.07
2023-03-04T12:03:13.156Z,8.30
2023-03-04T12:04:33.433Z,8.17
2023-03-04T12:06:02.988Z,8.37
2023-03-04T12:07:16.520Z,8.40
2023-03-04T12:08:24.281Z,8.00
2023-03-04T12:09:49.114Z,8.47
2023-03-04T12:11:04.988Z,8.67
2023-03-04T12:12:34.273Z,8.40
2023-03-04T12:13:42.649Z,8.20
2023-03-04T12:14:49.081Z,7.73
2023-03-04T12:16:17.269Z,8.83
2023-03-04T12:17:35.830Z,8.03
2023-03-04T12:18:37.353Z,8.63
2023-03-04T12:20:02.155Z,8.83
2023-03-04T12:21:28.570Z,9.40
2023-03-04T12:22:42.459Z,8.60
2023-03-04T12:23:52.283Z,9.07
2023-03-04T12:25:22.150Z,9.90
2023-03-04T12:26:42.446Z,7.97
2023-03-04T12:27:56.295Z,8.43
2023-03-04T12:29:08.872Z,7.90
2023-03-04T12:30:51.529Z,8.20
2023-03-04T12:32:32.387Z,9.07
2023-03-04T12:34:07.051Z,8.70
2023-03-04T12:35:08.518Z,8.20
2023-03-04T12:36:16.053Z,8.67
2023-03-04T12:37:49.215Z,8.77
2023-03-04T12:38:53.508Z,8.53
2023-03-04T12:40:17.224Z,8.83
2023-03-04T12:41:21.864Z,9.33
2023-03-04T12:42:37.023Z,9.47
2023-03-04T12:43:59.810Z,9.83
2023-03-04T12:45:27.427Z,9.77
2023-03-04T12:46:50.813Z,9.83
2023-03-04T12:47:58.154Z,9.27
2023-03-04T12:49:18.541Z,9.33
2023-03-04T12:50:31.245Z,10.53
2023-03-04T12:52:05.035Z,9.70
2023-03-04T12:53:44.915Z,10.40
2023-03-04T12:54:50.668Z,11.07
2023-03-04T12:55:56.462Z,10.60
2023-03-04T12:56:58.001Z,9.90
2023-03-04T12:57:59.770Z,10.73
2023-03-04T12:59:01.744Z,10.40
2023-03-04T13:00:24.629Z,9.87
2023-03-04T13:01:41.741Z,10.70
2023-03-04T13:03:09.448Z,9.50
2023-03-04T13:04:43.214Z,9.30
2023-03-04T13:06:11.245Z,9.43
2023-03-04T13:07:42.932Z,9.43
2023-03-04T13:08:56.856Z,9.27
2023-03-04T13:10:10.555Z,8.47
2023-03-04T13:11:31.228Z,8.63
2023-03-04T13:12:56.552Z,9.57
2023-03-04T13:14:05.718Z,9.87
2023-03-04T13:15:07.283Z,9.80
2023-03-04T13:16:11.548Z,9.30
2023-03-04T13:17:47.656Z,10.27
2023-03-04T13:18:49.451Z,10.50
2023-03-04T13:20:17.168Z,9.60
2023-03-04T13:21:25.214Z,9.80
2023-03-04T13:22:38.961Z,11.03
2023-03-04T13:23:41.012Z,9.10
2023-03-04T13:24:50.971Z,10.30
2023-03-04T13:25:55.283Z,9.80
2023-03-04T13:26:57.005Z,9.63
2023-03-04T13:28:13.839Z,8.93
2023-03-04T13:29:18.411Z,9.13
2023-03-04T13:30:31.896Z,9.03
2023-03-04T13:32:10.980Z,8.93
2023-03-04T13:33:15.100Z,9.50
2023-03-04T13:34:47.584Z,9.10
2023-03-04T13:36:04.182Z,8.67
2023-03-04T13:37:27.435Z,8.70
2023-03-04T13:38:31.574Z,8.47
2023-03-04T13:39:34.084Z,8.53
2023-03-04T13:40:37.625Z,8.83
2023-03-04T13:41:53.702Z,10.93
2023-03-04T13:42:55.408Z,9.80
2023-03-04T13:43:59.410Z,9.30
2023-03-04T13:45:01.429Z,9.83
2023-03-04T13:46:18.548Z,9.60
2023-03-04T13:47:31.758Z,9.37
2023-03-04T13:48:36.498Z,9.47
2023-03-04T13:49:38.227Z,9.10
2023-03-04T13:50:48.922Z,9.90
2023-03-04T13:51:51.750Z,9.43
2023-03-04T13:52:53.616Z,8.60
2023-03-04T13:54:00.916Z,9.03
2023-03-04T13:55:39.880Z,9.67
2023-03-04T13:56:42.948Z,9.60
2023-03-04T13:57:51.276Z,9.77
2023-03-04T13:59:04.771Z,10.87
2023-03-04T14:00:12.903Z,10.70
2023-03-04T14:01:30.380Z,10.60
2023-03-04T14:02:34.720Z,10.87
2023-03-04T14:03:36.349Z,10.57
2023-03-04T14:04:43.813Z,10.40
2023-03-04T14:05:45.446Z,9.73
2023-03-04T14:06:48.928Z,9.90
2023-03-04T14:07:50.474Z,9.77
2023-03-04T14:08:53.426Z,9.60
2023-03-04T14:10:07.586Z,9.87
2023-03-04T14:11:15.369Z,11.07
2023-03-04T14:12:16.993Z,11.80